Time;durP1;ratioP1;P1;durP2;ratioP2;P2;SDS_P1;SDS_P2;PMS_P1;PMS_P2;Temp;Humidity;BMP_temperature;BMP_pressure;BME280_temperature;BME280_humidity;BME280_pressure;Samples;Min_cycle;Max_cycle;Signal;HPM_P1;HPM_P2
2022/11/20 00:02:00;;;;;;;8.45;4.15;;;;;;;27.18;52.77;100302.09;5093647;27;69760;-35
2022/11/20 00:04:31;;;;;;;8.32;4.68;;;;;;;28.51;52.75;100512.91;5091330;27;66323;-36
2022/11/20 00:07:02;;;;;;;8.23;4.63;;;;;;;28.51;53.04;100515.59;5080571;27;69765;-36
2022/11/20 00:09:34;;;;;;;;;;;;;;;28.33;53.86;100528.91;5087395;27;65769;-36
2022/11/20 00:12:05;;;;;;;7.70;4.68;;;;;;;28.54;53.50;100535.94;5086442;27;70262;-37
2022/11/20 00:14:36;;;;;;;8.87;3.97;;;;;;;28.63;53.67;100541.91;5083275;27;66020;-37
2022/11/20 00:17:07;;;;;;;7.73;4.57;;;;;;;28.63;53.49;100540.03;5081091;27;70120;-37
2022/11/20 00:19:38;;;;;;;7.77;4.27;;;;;;;28.68;53.62;100548.34;5076260;27;66372;-36
2022/11/20 00:22:10;;;;;;;18.35;4.70;;;;;;;28.69;53.96;100554.56;5080949;27;69075;-35
2022/11/20 00:24:41;;;;;;;5.80;4.20;;;;;;;28.69;54.09;100551.84;5090366;27;65391;-36
2022/11/20 00:27:12;;;;;;;4.40;4.00;;;;;;;28.36;53.91;100501.53;5082866;27;69738;-36
2022/11/20 00:29:43;;;;;;;4.60;4.20;;;;;;;28.63;54.37;100547.31;5083000;27;66223;-35
2022/11/20 00:32:14;;;;;;;16.25;4.28;;;;;;;28.78;54.71;100574.03;5084423;27;70030;-35
2022/11/20 00:34:45;;;;;;;5.43;4.27;;;;;;;28.78;54.90;100580.28;5081997;27;65335;-36
2022/11/20 00:37:17;;;;;;;7.82;4.10;;;;;;;28.79;55.50;100592.72;5093103;27;70491;-37
2022/11/20 00:39:48;;;;;;;8.03;4.40;;;;;;;28.78;56.50;100596.50;5088290;27;65871;-35
2022/11/20 00:42:20;;;;;;;6.75;4.30;;;;;;;28.68;57.82;100574.50;5089943;27;70191;-34
2022/11/20 00:44:51;;;;;;;15.82;6.47;;;;;;;28.89;61.60;100608.47;5094244;27;65960;-36
2022/11/20 00:47:22;;;;;;;13.60;6.23;;;;;;;28.91;63.54;100612.63;5086375;27;70249;-35
2022/11/20 00:49:53;;;;;;;10.30;7.03;;;;;;;28.93;64.69;100621.34;5081320;27;66116;-36
2022/11/20 00:52:24;;;;;;;11.65;7.45;;;;;;;28.95;65.94;100630.06;5084786;27;69264;-38
2022/11/20 00:54:56;;;;;;;16.50;8.80;;;;;;;28.96;67.14;100620.91;5081030;27;64751;-37
2022/11/20 00:57:27;;;;;;;20.08;9.82;;;;;;;28.99;67.66;100626.94;5080376;27;69707;-36
2022/11/20 00:59:58;;;;;;;21.35;10.85;;;;;;;29.01;68.55;100630.25;5080993;27;66143;-36
2022/11/20 01:02:29;;;;;;;24.15;11.48;;;;;;;28.94;69.66;100624.84;5069054;27;69505;-37
2022/11/20 01:05:00;;;;;;;25.05;11.73;;;;;;;28.98;70.24;100630.69;5089214;27;66601;-36
2022/11/20 01:07:32;;;;;;;29.08;11.60;;;;;;;29.06;70.64;100635.84;5093163;27;69948;-37
2022/11/20 01:10:04;;;;;;;21.20;11.13;;;;;;;29.02;71.98;100640.00;5085338;27;66080;-37
2022/11/20 01:12:35;;;;;;;18.67;11.50;;;;;;;29.01;71.75;100643.75;5090609;27;69879;-35
2022/11/20 01:15:07;;;;;;;21.63;11.75;;;;;;;29.09;72.60;100635.44;5083882;27;65829;-35
2022/11/20 01:17:38;;;;;;;12.65;10.23;;;;;;;29.10;67.94;100631.69;5085416;27;70985;-35
2022/11/20 01:20:10;;;;;;;11.02;9.60;;;;;;;29.06;67.73;100622.34;5086655;27;65513;-36
2022/11/20 01:22:42;;;;;;;13.90;9.85;;;;;;;28.97;67.98;100610.94;5085618;27;70181;-35
2022/11/20 01:25:13;;;;;;;19.42;10.85;;;;;;;29.14;67.54;100633.75;5083398;27;67276;-36
2022/11/20 01:27:44;;;;;;;11.63;9.53;;;;;;;29.14;68.29;100643.72;5080167;27;70328;-36
2022/11/20 01:30:15;;;;;;;11.77;9.75;;;;;;;29.18;68.17;100644.97;5083526;27;65535;-36
2022/11/20 01:32:46;;;;;;;13.13;8.95;;;;;;;29.08;68.18;100633.78;5083355;27;69890;-35
2022/11/20 01:35:17;;;;;;;9.60;8.63;;;;;;;29.24;67.91;100662.19;5087164;27;66160;-38
2022/11/20 01:37:50;;;;;;;;;;;;;;;28.92;69.13;100651.28;5049636;27;69420;-36
2022/11/20 01:40:21;;;;;;;;;;;;;;;28.88;69.73;100650.00;5086067;27;66428;-36
2022/11/20 01:43:22;;;;;;;8.52;7.72;;;;;;;29.22;67.72;100659.69;5082222;27;69905;-37
2022/11/20 01:46:04;;;;;;;9.05;8.18;;;;;;;29.24;68.00;100648.69;5084959;27;66324;-35
2022/11/20 01:48:55;;;;;;;9.63;7.82;;;;;;;29.26;67.53;100655.53;5079637;27;70006;-36
2022/11/20 01:51:41;;;;;;;11.77;7.90;;;;;;;29.27;68.10;100659.88;5054776;27;65669;-35
2022/11/20 01:54:18;;;;;;;11.07;8.70;;;;;;;29.30;67.48;100662.13;5081067;27;70218;-36
2022/11/20 01:56:53;;;;;;;9.52;8.52;;;;;;;29.13;67.54;100631.25;5085218;27;65638;-36
2022/11/20 01:59:28;;;;;;;8.35;7.53;;;;;;;29.28;67.74;100666.09;5080320;27;69626;-37
2022/11/20 02:01:59;;;;;;;12.43;8.98;;;;;;;29.32;73.64;100665.47;5082898;27;66320;-36
2022/11/20 02:04:31;;;;;;;20.60;10.40;;;;;;;29.28;73.92;100664.25;5079427;27;69947;-36
2022/11/20 02:07:04;;;;;;;13.25;8.57;;;;;;;28.39;74.07;100533.47;5094029;27;67314;-36
2022/11/20 02:09:35;;;;;;;31.25;12.35;;;;;;;29.11;75.37;100672.00;5095359;27;69743;-36
2022/11/20 02:13:42;;;;;;;21.50;11.85;;;;;;;28.92;76.63;100649.38;5085960;27;65318;-37
2022/11/20 02:14:58;;;;;;;20.95;13.13;;;;;;;28.88;77.62;100650.84;5084741;27;70166;-36
2022/11/20 02:17:29;;;;;;;19.47;13.20;;;;;;;28.85;78.28;100661.25;5083435;27;66633;-37
2022/11/20 02:20:01;;;;;;;24.20;14.50;;;;;;;28.84;78.21;100655.03;5087518;27;70505;-35
2022/11/20 02:22:42;;;;;;;17.52;13.73;;;;;;;28.72;78.38;100646.75;5087945;27;66342;-36
2022/11/20 02:25:14;;;;;;;21.38;13.02;;;;;;;28.79;79.26;100667.50;5092548;27;69989;-38
2022/11/20 02:27:44;;;;;;;;;;;;;;;28.49;79.88;100668.78;5096946;27;66545;-37
2022/11/20 02:30:16;;;;;;;15.18;11.25;;;;;;;28.69;79.37;100663.34;5086179;27;68424;-37
2022/11/20 02:32:47;;;;;;;12.45;11.18;;;;;;;28.51;79.73;100645.13;5088375;27;65897;-38
2022/11/20 02:35:18;;;;;;;17.95;12.02;;;;;;;28.58;79.90;100676.66;5088130;27;69651;-37
2022/11/20 02:37:54;;;;;;;20.20;11.40;;;;;;;28.66;79.54;100679.13;5088999;27;66572;-36
2022/11/20 02:40:26;;;;;;;19.33;10.52;;;;;;;28.66;79.48;100669.16;5092435;27;69096;-35
2022/11/20 02:42:58;;;;;;;23.65;10.52;;;;;;;28.66;79.63;100658.38;5083057;27;66064;-37
2022/11/20 02:45:29;;;;;;;12.98;10.80;;;;;;;28.78;79.05;100674.78;5088789;27;69839;-37
2022/11/20 02:48:01;;;;;;;32.30;10.93;;;;;;;28.78;79.64;100669.38;5094069;27;66160;-36
2022/11/20 02:50:32;;;;;;;36.37;11.27;;;;;;;28.84;79.08;100681.19;5093898;27;70295;-37
2022/11/20 02:53:04;;;;;;;24.38;10.88;;;;;;;28.75;79.20;100661.66;5082750;27;65475;-35
2022/11/20 02:55:36;;;;;;;26.88;9.93;;;;;;;28.91;79.61;100671.19;5086124;27;69406;-36
2022/11/20 02:58:07;;;;;;;;;;;;;;;28.73;79.69;100679.97;5092052;27;65515;-36
2022/11/20 03:00:38;;;;;;;25.85;10.40;;;;;;;28.87;79.54;100665.41;5084656;27;69784;-38
2022/11/20 03:03:09;;;;;;;25.10;10.15;;;;;;;29.01;79.20;100670.75;5085362;27;65736;-39
2022/11/20 03:05:40;;;;;;;;;;;;;;;28.83;79.97;100674.13;5066997;27;70853;-36
2022/11/20 03:08:11;;;;;;;17.35;9.32;;;;;;;29.04;78.37;100673.06;5087488;27;65780;-35
2022/11/20 03:10:43;;;;;;;17.95;9.48;;;;;;;29.00;78.21;100659.09;5086243;27;70121;-35
2022/11/20 03:13:14;;;;;;;20.27;9.30;;;;;;;29.10;78.45;100677.59;5091269;27;66814;-35
2022/11/20 03:15:46;;;;;;;12.40;8.80;;;;;;;29.16;78.06;100676.75;5087943;27;69695;-35
2022/11/20 03:18:17;;;;;;;10.57;8.52;;;;;;;29.16;78.96;100657.84;5088129;27;66663;-35
2022/11/20 03:20:49;;;;;;;14.52;8.40;;;;;;;29.05;78.93;100645.00;5084959;27;70099;-35
2022/11/20 03:23:20;;;;;;;16.63;8.88;;;;;;;29.20;78.38;100661.78;5087982;27;66921;-35
2022/11/20 03:25:51;;;;;;;9.80;8.50;;;;;;;29.17;78.93;100644.13;5067527;28;68631;-37
2022/11/20 03:28:22;;;;;;;10.43;7.50;;;;;;;29.14;78.69;100630.22;5091012;27;66819;-35
2022/11/20 03:30:54;;;;;;;8.68;7.95;;;;;;;29.28;78.43;100649.88;5089029;27;69220;-35
2022/11/20 03:33:28;;;;;;;20.45;10.68;;;;;;;29.28;78.34;100641.78;5086861;27;66157;-35
2022/11/20 03:36:04;;;;;;;20.80;9.57;;;;;;;28.98;78.26;100582.09;5079623;27;69947;-37
2022/11/20 03:38:36;;;;;;;15.90;8.98;;;;;;;29.32;78.42;100630.34;5087283;27;66354;-35
2022/11/20 03:41:10;;;;;;;20.23;9.80;;;;;;;29.23;77.71;100615.44;5080526;27;70372;-35
2022/11/20 03:43:41;;;;;;;19.50;10.30;;;;;;;29.36;78.62;100619.91;5082041;27;65317;-35
2022/11/20 03:46:13;;;;;;;21.65;10.27;;;;;;;29.40;77.55;100613.88;5087356;27;69347;-36
2022/11/20 03:48:44;;;;;;;22.55;10.63;;;;;;;29.40;78.55;100611.19;5082865;27;66019;-35
2022/11/20 03:51:26;;;;;;;23.40;10.65;;;;;;;28.98;78.08;100536.19;5080532;27;70008;-37
2022/11/20 03:53:59;;;;;;;27.55;10.52;;;;;;;29.46;78.01;100608.66;5085949;27;66315;-35
2022/11/20 03:56:32;;;;;;;30.50;11.88;;;;;;;29.45;78.41;100601.56;5084803;27;70548;-35
2022/11/20 03:59:04;;;;;;;23.73;10.32;;;;;;;29.43;78.13;100579.38;5080804;27;66475;-34
2022/11/20 04:01:37;;;;;;;28.58;10.63;;;;;;;28.99;78.19;100497.31;5092200;27;69614;-34
2022/11/20 04:04:12;;;;;;;30.60;11.38;;;;;;;29.38;78.08;100561.91;5089016;27;66355;-38
2022/11/20 04:06:44;;;;;;;35.90;10.90;;;;;;;29.48;78.03;100571.44;5081636;27;68503;-35
2022/11/20 04:09:15;;;;;;;45.55;11.63;;;;;;;29.51;78.05;100562.91;5092925;27;65586;-38
2022/11/20 04:11:47;;;;;;;37.75;11.82;;;;;;;29.49;78.17;100551.47;5084856;27;69962;-37
2022/11/20 04:14:18;;;;;;;32.28;12.45;;;;;;;29.53;78.03;100560.78;5087216;27;66863;-36
2022/11/20 04:16:50;;;;;;;26.80;12.00;;;;;;;29.55;77.57;100547.88;5091476;27;70143;-36
2022/11/20 04:19:21;;;;;;;37.20;11.10;;;;;;;29.43;77.70;100509.13;5082620;27;65552;-36
2022/11/20 04:21:53;;;;;;;27.70;11.18;;;;;;;29.18;75.49;100480.19;5086620;27;70651;-34
2022/11/20 04:24:24;;;;;;;33.25;12.00;;;;;;;29.30;74.17;100502.75;5090370;27;65392;-35
2022/11/20 04:26:55;;;;;;;33.78;11.27;;;;;;;29.37;72.92;100521.63;5086021;27;69557;-38
2022/11/20 04:29:26;;;;;;;31.73;10.37;;;;;;;28.88;72.06;100451.06;5087197;27;66271;-36
2022/11/20 04:31:57;;;;;;;19.67;10.35;;;;;;;29.27;71.41;100508.59;5087309;27;68564;-35
2022/11/20 04:34:29;;;;;;;29.87;10.73;;;;;;;29.13;71.00;100488.13;5087110;27;66358;-36
2022/11/20 04:37:01;;;;;;;29.98;10.30;;;;;;;29.17;70.29;100498.28;5079331;27;69486;-36
2022/11/20 04:39:32;;;;;;;25.10;10.60;;;;;;;29.18;70.87;100494.53;5082542;27;66282;-36
2022/11/20 04:44:53;;;;;;;21.48;8.95;;;;;;;29.15;68.24;100500.38;5084892;27;65968;-34
2022/11/20 04:47:25;;;;;;;22.08;8.77;;;;;;;29.12;66.98;100492.69;5086365;27;69684;-35
2022/11/20 04:49:56;;;;;;;18.52;8.35;;;;;;;29.08;65.89;100493.34;5088369;27;66165;-34
2022/11/20 04:52:27;;;;;;;14.32;8.10;;;;;;;28.90;65.08;100459.78;5085907;27;70083;-35
2022/11/20 04:54:58;;;;;;;13.63;7.60;;;;;;;29.05;64.26;100482.97;5086704;27;66853;-44
2022/11/20 04:57:29;;;;;;;14.87;7.53;;;;;;;29.00;63.41;100488.97;5085404;27;70058;-35
2022/11/20 05:00:00;;;;;;;20.52;7.85;;;;;;;28.94;61.57;100481.75;5085399;27;65475;-35
2022/11/20 05:02:32;;;;;;;14.50;8.03;;;;;;;28.88;61.95;100467.25;5087092;27;69768;-35
2022/11/20 05:05:03;;;;;;;12.52;7.78;;;;;;;28.94;62.02;100477.19;5090481;27;66340;-35
2022/11/20 05:07:35;;;;;;;14.50;7.27;;;;;;;28.85;61.40;100473.09;5084924;27;70003;-36
2022/11/20 05:10:08;;;;;;;23.33;7.50;;;;;;;28.87;60.82;100479.09;5084078;27;65687;-35
2022/11/20 05:12:39;;;;;;;;;;;;;;;28.60;61.20;100474.88;5071794;27;69985;-36
2022/11/20 05:15:10;;;;;;;13.60;6.68;;;;;;;28.82;61.50;100468.13;5082912;27;65578;-37
2022/11/20 05:17:46;;;;;;;17.38;7.28;;;;;;;28.86;61.44;100458.56;5084507;27;69989;-35
2022/11/20 05:20:18;;;;;;;10.50;6.15;;;;;;;28.83;59.71;100458.97;5103175;27;65307;-35
2022/11/20 05:22:49;;;;;;;10.20;6.25;;;;;;;28.87;60.80;100444.00;5078974;27;69550;-35
2022/11/20 05:25:20;;;;;;;9.93;6.07;;;;;;;28.44;58.81;100381.75;5086837;27;66644;-35
2022/11/20 05:27:51;;;;;;;19.77;6.25;;;;;;;28.82;59.15;100430.34;5081608;27;69493;-35
2022/11/20 05:30:22;;;;;;;38.72;6.53;;;;;;;28.74;58.60;100420.59;5085324;27;65543;-35
2022/11/20 05:32:53;;;;;;;32.15;6.05;;;;;;;28.83;58.96;100423.88;5082486;27;70055;-34
2022/11/20 05:35:24;;;;;;;28.17;6.35;;;;;;;28.81;59.75;100417.88;5077065;27;66433;-35
2022/11/20 05:37:56;;;;;;;37.55;5.80;;;;;;;28.67;58.11;100392.03;5081742;27;70150;-34
2022/11/20 05:40:27;;;;;;;18.80;5.40;;;;;;;28.82;58.75;100411.44;5094535;27;67785;-36
2022/11/20 05:42:59;;;;;;;12.77;5.97;;;;;;;28.77;59.24;100399.63;5078918;27;70041;-36
2022/11/20 05:45:30;;;;;;;18.27;5.35;;;;;;;28.68;58.00;100386.41;5081598;27;66570;-37
2022/11/20 05:48:02;;;;;;;14.27;5.50;;;;;;;28.85;58.24;100413.69;5085061;27;70232;-36
2022/11/20 05:50:33;;;;;;;17.97;4.93;;;;;;;28.86;58.75;100401.03;5081754;27;65308;-36
2022/11/20 05:53:04;;;;;;;8.38;4.78;;;;;;;28.83;58.21;100394.19;5066733;27;69276;-36
2022/11/20 05:55:36;;;;;;;13.60;4.63;;;;;;;28.81;58.46;100390.91;5072130;27;64871;-37
2022/11/20 05:58:07;;;;;;;13.18;5.15;;;;;;;28.87;58.75;100398.13;5090198;27;70221;-35
2022/11/20 06:00:38;;;;;;;6.43;4.20;;;;;;;28.87;57.49;100395.41;5072234;27;66527;-38
2022/11/20 06:03:09;;;;;;;13.77;3.80;;;;;;;28.77;56.97;100378.03;5086073;27;69689;-37
2022/11/20 06:05:41;;;;;;;14.25;4.97;;;;;;;28.87;56.88;100387.31;5069652;27;65570;-35
2022/11/20 06:08:12;;;;;;;5.03;4.03;;;;;;;28.83;56.60;100377.97;5084615;27;70622;-35
2022/11/20 06:10:43;;;;;;;6.37;3.77;;;;;;;28.67;56.51;100352.38;5079111;27;65569;-38
2022/11/20 06:13:14;;;;;;;5.32;3.92;;;;;;;28.84;55.48;100373.44;5082404;27;69762;-37
2022/11/20 06:15:53;;;;;;;5.90;4.10;;;;;;;28.37;53.78;100298.16;5087227;27;65529;-35
2022/11/20 06:18:28;;;;;;;4.22;3.67;;;;;;;28.47;53.58;100314.72;5088493;27;69406;-37
2022/11/20 06:21:03;;;;;;;6.55;3.67;;;;;;;28.69;53.80;100344.03;5085981;27;65613;-35
2022/11/20 06:23:35;;;;;;;6.05;3.83;;;;;;;28.86;55.11;100360.53;5080122;27;70531;-35
2022/11/20 06:26:09;;;;;;;4.10;3.72;;;;;;;28.80;54.29;100359.53;5081787;27;66521;-36
2022/11/20 06:28:40;;;;;;;4.35;3.45;;;;;;;28.83;55.11;100360.97;5087439;27;69497;-36
2022/11/20 06:31:14;;;;;;;5.50;3.80;;;;;;;28.41;53.20;100288.56;5088304;27;65027;-35
2022/11/20 06:33:45;;;;;;;6.25;2.97;;;;;;;28.81;54.06;100353.09;5080855;27;70744;-36
2022/11/20 06:36:19;;;;;;;3.35;3.05;;;;;;;28.28;52.84;100267.91;5078390;27;66459;-35
2022/11/20 06:38:50;;;;;;;5.80;3.15;;;;;;;28.79;53.08;100349.78;5083250;27;70338;-36
2022/11/20 06:41:22;;;;;;;3.92;3.13;;;;;;;28.79;53.58;100347.09;5083213;27;65134;-36
2022/11/20 06:43:55;;;;;;;2.97;2.72;;;;;;;28.71;53.23;100325.75;5080103;27;70503;-37
2022/11/20 06:46:26;;;;;;;3.27;2.70;;;;;;;28.80;53.11;100335.22;5086742;27;65597;-35
2022/11/20 06:48:58;;;;;;;4.68;2.80;;;;;;;28.78;53.46;100321.16;5089313;27;69872;-36
2022/11/20 06:51:29;;;;;;;4.72;3.20;;;;;;;28.76;51.49;100323.25;5079184;27;67046;-35
2022/11/20 06:54:00;;;;;;;2.58;2.38;;;;;;;28.72;52.50;100308.50;5083303;27;70006;-35
2022/11/20 06:56:32;;;;;;;2.72;2.53;;;;;;;28.70;52.31;100291.72;5082079;27;65494;-36
2022/11/20 06:59:07;;;;;;;2.60;2.40;;;;;;;28.79;50.32;100312.00;5091014;27;70537;-35
2022/11/20 07:01:39;;;;;;;2.65;2.42;;;;;;;28.85;52.19;100316.50;5086231;27;66610;-37
2022/11/20 07:04:10;;;;;;;2.50;2.28;;;;;;;28.79;50.59;100317.41;5090108;27;69931;-40
2022/11/20 07:06:41;;;;;;;3.77;2.50;;;;;;;28.82;52.24;100311.56;5092016;27;65934;-35
2022/11/20 07:09:12;;;;;;;3.53;2.55;;;;;;;28.84;51.45;100309.47;5084953;27;71530;-37
2022/11/20 07:11:44;;;;;;;2.85;2.40;;;;;;;28.83;51.43;100307.78;5084752;27;66317;-37
2022/11/20 07:14:15;;;;;;;6.93;2.70;;;;;;;28.79;51.33;100312.00;5089038;27;70346;-36
2022/11/20 07:16:46;;;;;;;9.55;2.33;;;;;;;28.82;50.85;100311.56;5088975;27;65210;-37
2022/11/20 07:19:18;;;;;;;2.30;2.20;;;;;;;28.76;51.06;100301.66;5081642;27;70491;-35
2022/11/20 07:21:58;;;;;;;2.45;2.25;;;;;;;28.80;50.41;100307.41;5065341;27;65531;-38
2022/11/20 07:24:29;;;;;;;2.90;2.30;;;;;;;28.78;50.78;100307.66;5058524;28;68518;-37
2022/11/20 07:27:01;;;;;;;;;;;;;;;28.48;50.25;100302.06;5087177;27;66308;-35
2022/11/20 07:29:32;;;;;;;2.65;2.35;;;;;;;28.70;49.42;100297.94;5085670;27;69389;-35
2022/11/20 07:32:04;;;;;;;4.07;2.47;;;;;;;28.27;49.45;100227.66;5088468;27;66255;-36
2022/11/20 07:34:36;;;;;;;2.20;2.00;;;;;;;28.67;49.55;100284.06;5096892;27;68234;-35
2022/11/20 07:37:08;;;;;;;3.10;2.50;;;;;;;28.71;49.11;100298.78;5087299;27;65403;-34
2022/11/20 07:39:39;;;;;;;3.35;2.22;;;;;;;28.57;48.97;100281.84;5086948;27;69958;-42
2022/11/20 07:42:11;;;;;;;2.35;2.13;;;;;;;28.69;49.42;100292.75;5087254;27;65850;-36
2022/11/20 07:44:43;;;;;;;11.85;2.40;;;;;;;28.69;48.93;100281.97;5088326;27;69945;-36
2022/11/20 07:47:14;;;;;;;2.38;2.00;;;;;;;28.65;49.02;100278.06;5084761;27;66458;-36
2022/11/20 07:49:45;;;;;;;5.15;1.85;;;;;;;28.60;49.53;100265.22;5088606;27;68813;-34
2022/11/20 07:52:17;;;;;;;5.25;2.38;;;;;;;28.70;48.91;100280.94;5084265;27;65888;-34
2022/11/20 07:54:48;;;;;;;2.47;2.27;;;;;;;28.74;48.33;100284.84;5083075;27;70398;-37
2022/11/20 07:57:19;;;;;;;1.92;1.60;;;;;;;28.52;48.44;100255.53;5090865;27;65220;-35
2022/11/20 07:59:56;;;;;;;6.32;1.95;;;;;;;28.79;48.66;100281.47;5080636;27;70374;-34
2022/11/20 08:02:27;;;;;;;6.82;2.15;;;;;;;28.75;48.65;100278.38;5083994;27;66240;-35
2022/11/20 08:04:59;;;;;;;3.97;1.92;;;;;;;28.71;48.17;100266.38;5090013;27;68936;-34
2022/11/20 08:07:35;;;;;;;10.98;2.15;;;;;;;28.70;47.81;100270.13;5081150;27;66051;-33
2022/11/20 08:10:07;;;;;;;4.80;2.00;;;;;;;28.72;47.93;100270.72;5085275;27;70536;-37
2022/11/20 08:15:40;;;;;;;2.25;2.00;;;;;;;28.44;47.82;100215.31;5083939;27;70351;-34
2022/11/20 08:18:12;;;;;;;2.42;2.22;;;;;;;28.73;47.53;100264.31;5082200;27;66543;-34
2022/11/20 08:21:05;;;;;;;3.00;2.00;;;;;;;28.72;46.88;100252.69;5086037;27;70372;-36
2022/11/20 08:23:36;;;;;;;5.82;2.20;;;;;;;28.70;47.67;100252.06;5086799;27;65979;-35
2022/11/20 08:26:07;;;;;;;2.97;2.03;;;;;;;28.61;46.70;100244.44;5087369;27;71274;-42
2022/11/20 08:28:38;;;;;;;2.23;2.03;;;;;;;28.71;47.01;100255.59;5085413;27;66501;-36
2022/11/20 08:31:09;;;;;;;6.28;2.10;;;;;;;28.72;47.41;100249.13;5088134;27;69728;-34
2022/11/20 08:33:41;;;;;;;2.00;1.83;;;;;;;28.49;47.53;100203.88;5088852;27;66106;-35
2022/11/20 08:36:12;;;;;;;2.45;2.25;;;;;;;28.67;48.32;100230.09;5091680;27;70893;-37
2022/11/20 08:38:48;;;;;;;2.70;2.10;;;;;;;28.61;47.20;100212.06;5084306;27;66308;-34
2022/11/20 08:41:26;;;;;;;4.47;2.35;;;;;;;28.74;47.08;100247.88;5085031;27;68966;-43
2022/11/20 08:44:01;;;;;;;10.15;2.25;;;;;;;28.75;48.04;100240.59;5093398;27;66929;-37
2022/11/20 08:46:36;;;;;;;17.52;2.30;;;;;;;28.75;47.77;100240.59;5086692;27;69512;-35
2022/11/20 08:49:10;;;;;;;5.13;2.00;;;;;;;28.57;47.08;100217.09;5082333;27;65347;-37
2022/11/20 08:51:42;;;;;;;10.82;2.53;;;;;;;28.64;46.91;100235.91;5091734;27;68740;-35
2022/11/20 08:54:14;;;;;;;7.53;2.38;;;;;;;28.65;46.56;100248.38;5087100;27;65940;-34
2022/11/20 08:56:45;;;;;;;12.25;2.45;;;;;;;28.64;47.38;100249.41;5080264;27;70440;-35
2022/11/20 08:59:16;;;;;;;11.73;2.50;;;;;;;28.68;48.42;100250.63;5089217;27;66720;-36
2022/11/20 09:02:08;;;;;;;6.35;2.22;;;;;;;28.55;47.80;100235.38;5068946;27;69028;-34
2022/11/20 09:04:40;;;;;;;3.10;2.47;;;;;;;28.64;47.34;100249.41;5076448;27;65927;-34
2022/11/20 09:07:11;;;;;;;2.97;1.98;;;;;;;28.64;46.84;100252.09;5086496;27;70353;-35
2022/11/20 09:09:42;;;;;;;3.22;1.75;;;;;;;28.66;47.71;100253.53;5080347;27;65674;-35
2022/11/20 09:12:15;;;;;;;5.38;2.20;;;;;;;28.57;47.72;100235.16;5081245;27;69671;-34
2022/11/20 09:14:46;;;;;;;4.18;2.20;;;;;;;28.62;46.63;100256.91;5090120;27;66164;-35
2022/11/20 09:17:23;;;;;;;13.07;2.42;;;;;;;28.67;47.76;100265.19;5083374;27;70137;-36
2022/11/20 09:19:55;;;;;;;15.13;2.42;;;;;;;28.72;49.08;100265.31;5082420;27;65917;-37
2022/11/20 09:22:26;;;;;;;10.02;2.97;;;;;;;28.84;52.00;100260.88;5083618;27;70418;-35
2022/11/20 09:24:57;;;;;;;4.60;2.77;;;;;;;28.56;55.10;100201.97;5084596;27;65527;-36
2022/11/20 09:27:29;;;;;;;2.78;2.58;;;;;;;29.05;56.47;100261.53;5082246;27;69691;-34
2022/11/20 09:30:00;;;;;;;3.30;3.08;;;;;;;29.14;57.65;100268.28;5081115;27;66448;-33
2022/11/20 09:32:31;;;;;;;4.33;3.60;;;;;;;29.12;58.34;100255.03;5082925;27;70163;-37
2022/11/20 09:35:02;;;;;;;4.53;3.33;;;;;;;29.34;60.37;100282.44;5083482;27;66197;-33
2022/11/20 09:37:34;;;;;;;5.37;3.67;;;;;;;29.42;61.81;100277.78;5082704;27;69803;-34
2022/11/20 09:40:05;;;;;;;3.77;3.47;;;;;;;29.48;61.67;100276.91;5084780;27;66085;-33
2022/11/20 09:42:46;;;;;;;9.93;4.65;;;;;;;29.06;64.94;100198.38;5059715;27;69059;-33
2022/11/20 09:45:22;;;;;;;6.15;5.15;;;;;;;29.59;65.57;100268.03;5080239;27;66273;-33
2022/11/20 09:48:18;;;;;;;4.90;4.50;;;;;;;29.35;68.00;100246.25;5079069;27;70152;-36
2022/11/20 09:50:54;;;;;;;13.10;6.85;;;;;;;29.56;72.43;100285.53;5081582;27;65618;-37
2022/11/20 09:53:47;;;;;;;12.27;6.78;;;;;;;29.46;72.66;100289.81;5078695;27;69465;-39
2022/11/20 09:56:20;;;;;;;12.85;6.65;;;;;;;29.50;73.18;100291.00;5087231;27;65572;-39
2022/11/20 09:58:55;;;;;;;10.60;6.82;;;;;;;29.00;73.04;100212.75;5079667;27;69377;-37
2022/11/20 10:01:32;;;;;;;17.30;7.22;;;;;;;29.45;73.05;100293.53;5083363;27;65626;-37
2022/11/20 10:04:05;;;;;;;8.27;7.32;;;;;;;29.47;73.29;100302.25;5079268;27;69816;-38
2022/11/20 10:06:50;;;;;;;8.93;7.00;;;;;;;29.46;72.92;100300.59;5091982;27;65784;-36
2022/11/20 10:09:53;;;;;;;10.48;6.65;;;;;;;29.50;74.49;100312.59;5087148;27;70166;-36
2022/11/20 10:13:05;;;;;;;23.42;13.63;;;;;;;29.44;73.93;100313.50;5091628;27;66321;-36
2022/11/20 10:15:45;;;;;;;25.02;14.68;;;;;;;29.51;71.67;100308.88;5081967;27;70069;-37
2022/11/20 10:18:42;;;;;;;13.70;10.90;;;;;;;29.51;72.08;100303.47;5079246;27;65696;-38
2022/11/20 10:21:25;;;;;;;16.27;11.80;;;;;;;29.63;69.99;100309.78;5079892;27;70445;-36
2022/11/20 10:24:06;;;;;;;17.13;9.65;;;;;;;29.71;71.13;100316.78;5078302;27;65479;-35
2022/11/20 10:27:03;;;;;;;10.90;8.77;;;;;;;29.75;70.20;100316.09;5082554;27;69646;-37
2022/11/20 10:29:36;;;;;;;11.68;8.77;;;;;;;29.70;69.77;100304.28;5082775;27;65805;-36
2022/11/20 10:32:27;;;;;;;10.13;8.70;;;;;;;29.33;70.38;100247.53;5079603;27;70208;-34
2022/11/20 10:35:18;;;;;;;8.35;6.93;;;;;;;29.88;70.17;100322.41;5095957;27;64493;-37
2022/11/20 10:38:05;;;;;;;8.60;7.10;;;;;;;29.82;71.41;100314.13;5089723;27;69504;-39
2022/11/20 10:40:41;;;;;;;13.80;7.78;;;;;;;29.93;70.41;100325.25;5089482;27;65996;-35
2022/11/20 10:43:30;;;;;;;7.93;6.88;;;;;;;29.43;71.10;100247.03;5087133;27;70317;-37
2022/11/20 10:46:15;;;;;;;7.82;6.97;;;;;;;29.82;71.02;100310.63;5088632;27;65956;-37
2022/11/20 10:48:47;;;;;;;9.88;6.30;;;;;;;29.94;70.50;100327.72;5098059;27;70137;-38
2022/11/20 10:51:30;;;;;;;8.30;6.43;;;;;;;30.05;70.21;100347.75;5091160;27;66689;-36
2022/11/20 10:54:33;;;;;;;6.80;6.18;;;;;;;29.98;71.09;100344.34;5090715;27;70465;-38
2022/11/20 10:57:21;;;;;;;7.10;6.40;;;;;;;30.02;70.91;100362.56;5091278;27;66212;-37
2022/11/20 11:00:02;;;;;;;6.25;5.75;;;;;;;29.95;70.86;100347.47;5078748;27;70273;-34
2022/11/20 11:02:47;;;;;;;6.85;6.13;;;;;;;30.09;70.16;100358.94;5087084;27;66023;-38
2022/11/20 11:05:39;;;;;;;5.38;4.97;;;;;;;30.04;71.08;100362.34;5084815;27;70479;-35
2022/11/20 11:08:16;;;;;;;7.47;6.15;;;;;;;30.02;70.66;100350.94;5110908;27;66823;-38
2022/11/20 11:10:56;;;;;;;6.50;5.40;;;;;;;30.10;70.88;100371.44;5088995;27;70693;-35
2022/11/20 11:13:30;;;;;;;6.25;5.68;;;;;;;30.11;70.11;100370.38;5089240;27;66315;-39
2022/11/20 11:16:03;;;;;;;6.85;5.82;;;;;;;30.07;70.64;100367.31;5085499;27;69270;-34
2022/11/20 11:18:35;;;;;;;6.22;5.63;;;;;;;29.65;70.28;100290.66;5086909;27;65500;-37
2022/11/20 11:21:07;;;;;;;5.47;5.07;;;;;;;30.08;70.83;100366.25;5087118;27;69563;-37
2022/11/20 11:23:43;;;;;;;6.50;5.80;;;;;;;30.04;71.15;100373.16;5089738;27;65540;-36
2022/11/20 11:26:23;;;;;;;7.35;6.28;;;;;;;30.02;72.01;100359.03;5090378;27;71480;-36
2022/11/20 11:29:03;;;;;;;8.93;6.03;;;;;;;30.09;72.41;100373.31;5089963;27;66371;-36
2022/11/20 11:31:35;;;;;;;7.18;5.35;;;;;;;30.09;71.31;100381.44;5091455;27;70066;-36
2022/11/20 11:34:08;;;;;;;5.35;4.90;;;;;;;29.95;71.23;100353.72;5091460;27;66723;-37
2022/11/20 11:36:41;;;;;;;5.97;5.47;;;;;;;30.12;71.15;100386.38;5091498;27;69364;-38
2022/11/20 11:39:16;;;;;;;6.32;5.20;;;;;;;30.15;71.45;100375.09;5088972;27;66480;-40
2022/11/20 11:41:49;;;;;;;6.50;5.13;;;;;;;30.14;71.13;100378.84;5088450;27;69063;-37
2022/11/20 11:47:21;;;;;;;5.20;4.80;;;;;;;29.63;71.82;100307.09;5085344;27;70286;-37
2022/11/20 11:50:03;;;;;;;6.22;4.72;;;;;;;29.62;72.36;100317.06;5085219;27;66234;-35
2022/11/20 11:52:57;;;;;;;6.18;5.57;;;;;;;30.00;71.99;100388.19;5082759;27;70485;-41
2022/11/20 11:55:54;;;;;;;5.57;4.80;;;;;;;30.13;71.73;100393.44;5072754;27;66519;-37
2022/11/20 11:58:25;;;;;;;4.80;4.25;;;;;;;30.10;71.24;100399.31;5081399;27;69747;-40
2022/11/20 12:01:12;;;;;;;5.18;4.68;;;;;;;29.66;71.16;100328.25;5085546;27;67045;-39
2022/11/20 12:03:52;;;;;;;5.55;5.15;;;;;;;29.73;71.56;100350.66;5089896;27;70663;-35